createdAt,value
2018-08-13T00:01:33.149Z,18.90
2018-08-13T00:04:01.617Z,18.90
2018-08-13T00:06:30.317Z,18.70
2018-08-13T00:08:58.900Z,18.80
2018-08-13T00:11:27.417Z,18.80
2018-08-13T00:13:55.954Z,18.80
2018-08-13T00:16:24.380Z,18.70
2018-08-13T00:18:52.773Z,18.70
2018-08-13T00:21:21.239Z,18.50
2018-08-13T00:23:50.146Z,18.50
2018-08-13T00:26:18.590Z,18.50
2018-08-13T00:28:47.090Z,18.40
2018-08-13T00:31:15.656Z,18.40
2018-08-13T00:33:44.058Z,18.30
2018-08-13T00:36:12.505Z,18.10
2018-08-13T00:38:40.966Z,18.00
2018-08-13T00:41:09.431Z,18.10
2018-08-13T00:43:37.927Z,18.00
2018-08-13T00:46:06.415Z,18.00
2018-08-13T00:48:34.820Z,18.00
2018-08-13T00:51:03.354Z,17.90
2018-08-13T00:53:31.900Z,18.00
2018-08-13T00:56:00.393Z,17.90
2018-08-13T00:58:28.838Z,17.90
2018-08-13T01:00:57.261Z,17.90
2018-08-13T01:03:25.657Z,17.80
2018-08-13T01:05:54.132Z,17.80
2018-08-13T01:08:22.690Z,17.80
2018-08-13T01:10:51.252Z,17.80
2018-08-13T01:13:19.701Z,17.80
2018-08-13T01:15:48.157Z,17.70
2018-08-13T01:18:16.542Z,17.60
2018-08-13T01:20:45.125Z,17.60
2018-08-13T01:23:13.527Z,17.50
2018-08-13T01:25:47.087Z,17.50
2018-08-13T01:28:15.551Z,17.40
2018-08-13T01:30:44.026Z,17.30
2018-08-13T01:33:12.455Z,17.30
2018-08-13T01:35:40.903Z,17.20
2018-08-13T01:38:09.331Z,17.20
2018-08-13T01:40:37.784Z,17.20
2018-08-13T01:43:06.489Z,17.30
2018-08-13T01:45:35.034Z,17.40
2018-08-13T01:48:03.542Z,17.30
2018-08-13T01:50:31.963Z,17.30
2018-08-13T01:53:00.413Z,17.30
2018-08-13T01:55:28.995Z,17.40
2018-08-13T01:57:57.671Z,17.30
2018-08-13T02:00:26.356Z,17.30
2018-08-13T02:02:54.780Z,17.30
2018-08-13T02:05:23.245Z,17.20
2018-08-13T02:07:51.716Z,17.10
2018-08-13T02:10:20.187Z,17.20
2018-08-13T02:12:48.612Z,17.10
2018-08-13T02:15:17.148Z,17.00
2018-08-13T02:17:45.709Z,17.00
2018-08-13T02:20:14.294Z,17.00
2018-08-13T02:22:42.677Z,16.90
2018-08-13T02:25:11.234Z,17.00
2018-08-13T02:27:39.736Z,16.90
2018-08-13T02:30:10.171Z,17.00
2018-08-13T02:32:38.643Z,17.00
2018-08-13T02:35:08.157Z,16.90
2018-08-13T02:37:36.983Z,16.90
2018-08-13T02:40:06.866Z,16.90
2018-08-13T02:42:35.310Z,16.90
2018-08-13T02:45:04.049Z,16.90
2018-08-13T02:47:32.716Z,16.80
2018-08-13T02:50:01.176Z,16.80
2018-08-13T02:52:29.705Z,16.80
2018-08-13T02:54:58.093Z,16.70
2018-08-13T02:57:26.574Z,16.70
2018-08-13T02:59:55.328Z,16.70
2018-08-13T03:02:23.800Z,16.70
2018-08-13T03:04:52.310Z,16.60
2018-08-13T03:07:20.778Z,16.60
2018-08-13T03:09:49.216Z,16.60
2018-08-13T03:12:17.671Z,16.50
2018-08-13T03:14:46.166Z,16.50
2018-08-13T03:17:15.823Z,16.40
2018-08-13T03:19:44.343Z,16.40
2018-08-13T03:22:13.074Z,16.30
2018-08-13T03:24:41.540Z,16.40
2018-08-13T03:27:10.083Z,16.30
2018-08-13T03:29:38.578Z,16.40
2018-08-13T03:32:07.225Z,16.40
2018-08-13T03:34:35.749Z,16.40
2018-08-13T03:37:04.337Z,16.50
2018-08-13T03:39:32.863Z,16.50
2018-08-13T03:42:01.298Z,16.50
2018-08-13T03:44:29.804Z,16.40
2018-08-13T03:46:58.264Z,16.40
2018-08-13T03:49:26.677Z,16.40
2018-08-13T03:51:55.208Z,16.40
2018-08-13T03:54:23.647Z,16.30
2018-08-13T03:56:52.056Z,16.30
2018-08-13T03:59:20.619Z,16.30
2018-08-13T04:01:49.243Z,16.40
2018-08-13T04:04:18.002Z,16.40
2018-08-13T04:06:47.576Z,16.50
2018-08-13T04:09:16.026Z,16.60
2018-08-13T04:11:44.482Z,16.60
2018-08-13T04:14:12.917Z,16.80
2018-08-13T04:16:41.405Z,16.70
2018-08-13T04:19:09.880Z,16.80
2018-08-13T04:21:38.281Z,16.90
2018-08-13T04:24:06.760Z,17.00
2018-08-13T04:26:35.259Z,16.90
2018-08-13T04:29:03.695Z,16.90
2018-08-13T04:31:32.182Z,16.70
2018-08-13T04:34:00.650Z,16.80
2018-08-13T04:36:29.137Z,16.80
2018-08-13T04:38:57.613Z,16.80
2018-08-13T04:41:26.170Z,16.90
2018-08-13T04:43:54.651Z,17.00
2018-08-13T04:46:23.167Z,17.10
2018-08-13T04:48:51.577Z,17.20
2018-08-13T04:51:19.972Z,17.40
2018-08-13T04:53:48.503Z,17.60
2018-08-13T04:56:16.891Z,17.60
2018-08-13T04:58:45.398Z,17.60
2018-08-13T05:01:14.013Z,17.50
2018-08-13T05:03:42.481Z,17.70
2018-08-13T05:06:10.923Z,17.60
2018-08-13T05:08:39.356Z,17.70
2018-08-13T05:11:07.785Z,17.90
2018-08-13T05:13:36.372Z,18.10
2018-08-13T05:16:04.916Z,18.30
2018-08-13T05:18:33.755Z,18.40
2018-08-13T05:21:02.282Z,18.60
2018-08-13T05:23:30.903Z,18.70
2018-08-13T05:25:59.496Z,18.80
2018-08-13T05:28:27.962Z,18.90
2018-08-13T05:30:56.408Z,19.20
2018-08-13T05:33:24.901Z,19.50
2018-08-13T05:35:53.342Z,19.60
2018-08-13T05:38:21.818Z,19.80
2018-08-13T05:40:50.275Z,20.00
2018-08-13T05:43:18.749Z,20.20
2018-08-13T05:45:47.246Z,20.30
2018-08-13T05:48:15.715Z,20.50
2018-08-13T05:50:44.159Z,20.70
2018-08-13T05:53:12.640Z,20.60
2018-08-13T05:55:41.155Z,21.10
2018-08-13T05:58:09.646Z,21.10
2018-08-13T06:00:38.056Z,21.40
2018-08-13T06:03:06.871Z,21.70
2018-08-13T06:05:35.535Z,22.00
2018-08-13T06:08:04.130Z,22.40
2018-08-13T06:10:32.644Z,22.90
2018-08-13T06:13:01.223Z,23.40
2018-08-13T06:15:29.732Z,23.70
2018-08-13T06:17:58.269Z,23.40
2018-08-13T06:20:26.729Z,23.20
2018-08-13T06:22:55.148Z,23.90
2018-08-13T06:25:23.653Z,24.50
2018-08-13T06:27:52.136Z,24.90
2018-08-13T06:30:20.595Z,25.40
2018-08-13T06:32:49.131Z,25.90
2018-08-13T06:35:17.600Z,26.00
2018-08-13T06:37:46.101Z,26.10
2018-08-13T06:40:14.688Z,26.20
2018-08-13T06:42:43.321Z,26.30
2018-08-13T06:45:11.981Z,26.50
2018-08-13T06:47:40.876Z,26.80
2018-08-13T06:50:11.554Z,26.90
2018-08-13T06:52:39.989Z,27.20
2018-08-13T06:55:08.786Z,26.70
2018-08-13T06:57:37.218Z,27.50
2018-08-13T07:00:07.895Z,28.00
2018-08-13T07:02:36.320Z,28.10
2018-08-13T07:05:06.016Z,27.30
2018-08-13T07:07:34.511Z,27.80
2018-08-13T07:10:03.037Z,28.20
2018-08-13T07:12:31.528Z,28.90
2018-08-13T07:14:59.956Z,29.10
2018-08-13T07:17:28.417Z,29.00
2018-08-13T07:19:56.976Z,28.40
2018-08-13T07:22:25.486Z,28.40
2018-08-13T07:24:53.905Z,29.10
2018-08-13T07:27:22.393Z,29.60
2018-08-13T07:29:50.840Z,29.70
2018-08-13T07:32:19.292Z,29.40
2018-08-13T07:34:47.752Z,30.50
2018-08-13T07:37:16.216Z,30.90
2018-08-13T07:39:44.769Z,31.20
2018-08-13T07:42:13.285Z,31.00
2018-08-13T07:44:41.798Z,30.50
2018-08-13T07:47:10.323Z,30.00
2018-08-13T07:49:38.791Z,30.60
2018-08-13T07:52:07.260Z,31.20
2018-08-13T07:54:35.686Z,31.20
2018-08-13T07:57:04.157Z,31.40
2018-08-13T07:59:33.015Z,31.40
2018-08-13T08:02:01.528Z,31.90
2018-08-13T08:04:29.990Z,32.30
2018-08-13T08:06:58.931Z,33.10
2018-08-13T08:09:27.422Z,33.00
2018-08-13T08:11:55.897Z,32.90
2018-08-13T08:14:24.553Z,32.10
2018-08-13T08:16:53.031Z,32.20
2018-08-13T08:19:21.524Z,33.20
2018-08-13T08:21:49.997Z,33.60
2018-08-13T08:24:18.534Z,33.80
2018-08-13T08:26:47.077Z,33.30
2018-08-13T08:29:15.580Z,34.00
2018-08-13T08:31:44.081Z,34.70
2018-08-13T08:34:12.687Z,34.30
2018-08-13T08:36:41.143Z,34.60
2018-08-13T08:39:16.369Z,35.00
2018-08-13T08:41:45.258Z,35.20
2018-08-13T08:44:13.739Z,34.00
2018-08-13T08:46:42.251Z,35.40
2018-08-13T08:49:10.668Z,36.40
2018-08-13T08:51:40.074Z,35.80
2018-08-13T08:54:09.869Z,36.70
2018-08-13T08:56:38.461Z,37.00
2018-08-13T08:59:08.327Z,36.80
2018-08-13T09:01:36.942Z,37.10
2018-08-13T09:04:05.973Z,36.30
2018-08-13T09:06:34.417Z,37.30
2018-08-13T09:09:03.003Z,38.00
2018-08-13T09:11:31.482Z,37.80
2018-08-13T09:13:59.931Z,38.00
2018-08-13T09:16:28.416Z,38.20
2018-08-13T09:19:08.012Z,38.10
2018-08-13T09:21:37.684Z,37.90
2018-08-13T09:24:17.917Z,38.30
2018-08-13T09:26:57.590Z,37.70
2018-08-13T09:29:37.377Z,37.40
2018-08-13T09:32:23.080Z,37.60
2018-08-13T09:35:27.964Z,37.50
2018-08-13T09:37:57.125Z,38.00
2018-08-13T09:40:26.560Z,37.30
2018-08-13T09:42:55.388Z,37.80
2018-08-13T09:45:23.916Z,37.80
2018-08-13T09:47:52.473Z,37.60
2018-08-13T09:50:21.310Z,38.00
2018-08-13T09:52:50.324Z,38.30
2018-08-13T09:55:19.454Z,37.60
2018-08-13T09:57:48.777Z,38.00
2018-08-13T10:00:24.205Z,37.90
2018-08-13T10:02:52.687Z,38.10
2018-08-13T10:05:21.272Z,37.70
2018-08-13T10:07:49.688Z,37.10
2018-08-13T10:10:18.531Z,38.10
2018-08-13T10:12:47.463Z,38.50
2018-08-13T10:15:16.191Z,38.50
2018-08-13T10:17:44.810Z,38.30
2018-08-13T10:20:17.010Z,38.10
2018-08-13T10:22:45.763Z,39.10
2018-08-13T10:25:14.504Z,37.50
2018-08-13T10:27:43.165Z,36.70
2018-08-13T10:30:14.251Z,37.70
2018-08-13T10:32:42.846Z,38.30
2018-08-13T10:35:11.265Z,39.20
2018-08-13T10:37:40.487Z,38.40
2018-08-13T10:40:15.516Z,38.90
2018-08-13T10:42:44.116Z,39.40
2018-08-13T10:45:12.627Z,39.20
2018-08-13T10:47:41.159Z,38.80
2018-08-13T10:50:11.636Z,38.60
2018-08-13T10:52:40.660Z,38.70
2018-08-13T10:55:10.548Z,39.10
2018-08-13T10:57:39.104Z,39.80
2018-08-13T11:00:10.760Z,39.90
2018-08-13T11:02:39.220Z,39.70
2018-08-13T11:05:09.033Z,39.10
2018-08-13T11:07:37.641Z,38.80
2018-08-13T11:10:07.882Z,39.10
2018-08-13T11:12:36.514Z,39.60
2018-08-13T11:15:08.332Z,39.00
2018-08-13T11:17:36.805Z,39.10
2018-08-13T11:20:06.068Z,39.40
2018-08-13T11:22:34.713Z,39.70
2018-08-13T11:25:03.226Z,39.50
2018-08-13T11:27:31.709Z,39.00
2018-08-13T11:30:00.174Z,37.60
2018-08-13T11:32:28.656Z,37.90
2018-08-13T11:34:57.297Z,39.20
2018-08-13T11:37:25.631Z,39.80
2018-08-13T11:39:54.138Z,40.10
2018-08-13T11:42:22.599Z,39.60
2018-08-13T11:44:51.123Z,38.80
2018-08-13T11:47:19.568Z,37.50
2018-08-13T11:49:48.080Z,36.30
2018-08-13T11:52:16.500Z,36.60
2018-08-13T11:54:44.975Z,37.30
2018-08-13T11:57:13.462Z,38.30
2018-08-13T11:59:42.288Z,38.10
2018-08-13T12:02:11.139Z,38.10
2018-08-13T12:04:39.580Z,38.70
2018-08-13T12:07:08.194Z,38.70
2018-08-13T12:09:36.634Z,38.70
2018-08-13T12:12:05.165Z,39.60
2018-08-13T12:14:33.750Z,39.90
2018-08-13T12:17:02.222Z,40.10
2018-08-13T12:19:30.760Z,39.70
2018-08-13T12:21:59.265Z,39.20
2018-08-13T12:24:27.763Z,40.00
2018-08-13T12:26:56.217Z,39.70
2018-08-13T12:29:24.813Z,38.50
2018-08-13T12:31:53.415Z,37.40
2018-08-13T12:34:21.968Z,38.00
2018-08-13T12:36:54.664Z,37.80
2018-08-13T12:39:23.266Z,37.80
2018-08-13T12:41:51.772Z,38.60
2018-08-13T12:44:20.286Z,38.30
2018-08-13T12:46:48.759Z,38.50
2018-08-13T12:49:17.329Z,39.30
2018-08-13T12:51:45.878Z,38.80
2018-08-13T12:54:14.385Z,38.30
2018-08-13T12:56:42.952Z,38.30
2018-08-13T12:59:11.489Z,37.50
2018-08-13T13:01:39.960Z,36.80
2018-08-13T13:04:08.484Z,37.50
2018-08-13T13:06:36.967Z,37.50
2018-08-13T13:09:08.428Z,37.80
2018-08-13T13:11:36.986Z,37.80
2018-08-13T13:14:05.499Z,38.20
2018-08-13T13:16:34.324Z,37.80
2018-08-13T13:19:02.817Z,37.60
2018-08-13T13:21:31.279Z,37.70
2018-08-13T13:23:59.746Z,36.50
2018-08-13T13:26:28.193Z,36.10
2018-08-13T13:28:56.710Z,35.20
2018-08-13T13:31:25.147Z,34.40
2018-08-13T13:33:53.889Z,33.40
2018-08-13T13:36:22.380Z,32.70
2018-08-13T13:38:51.139Z,32.50
2018-08-13T13:41:19.630Z,32.10
2018-08-13T13:43:48.163Z,32.10
2018-08-13T13:46:16.760Z,32.30
2018-08-13T13:48:45.196Z,32.40
2018-08-13T13:51:13.689Z,32.30
2018-08-13T13:53:42.198Z,32.50
2018-08-13T13:56:10.631Z,32.50
2018-08-13T13:58:39.138Z,32.20
2018-08-13T14:01:07.592Z,31.70
2018-08-13T14:03:36.154Z,31.80
2018-08-13T14:06:04.733Z,32.20
2018-08-13T14:08:33.173Z,32.60
2018-08-13T14:11:01.828Z,32.20
2018-08-13T14:13:30.424Z,32.20
2018-08-13T14:15:58.961Z,32.00
2018-08-13T14:18:27.491Z,31.70
2018-08-13T14:20:56.032Z,31.00
2018-08-13T14:23:24.565Z,30.80
2018-08-13T14:25:53.029Z,30.50
2018-08-13T14:28:21.610Z,30.30
2018-08-13T14:30:50.172Z,30.10
2018-08-13T14:33:18.713Z,30.20
2018-08-13T14:35:47.236Z,30.20
2018-08-13T14:38:15.783Z,30.30
2018-08-13T14:40:44.295Z,30.20
2018-08-13T14:43:12.748Z,30.10
2018-08-13T14:45:41.195Z,29.60
2018-08-13T14:48:09.769Z,29.40
2018-08-13T14:50:38.309Z,29.30
2018-08-13T14:53:07.002Z,29.30
2018-08-13T14:55:36.133Z,28.90
2018-08-13T14:58:04.722Z,28.70
2018-08-13T15:00:34.872Z,28.60
2018-08-13T15:03:03.409Z,28.40
2018-08-13T15:05:31.924Z,28.20
2018-08-13T15:08:00.397Z,28.20
2018-08-13T15:10:28.970Z,28.00
2018-08-13T15:12:57.548Z,27.80
2018-08-13T15:15:25.998Z,27.60
2018-08-13T15:17:54.495Z,27.50
2018-08-13T15:20:25.810Z,27.40
2018-08-13T15:22:54.459Z,27.20
2018-08-13T15:25:23.103Z,27.10
2018-08-13T15:27:51.696Z,27.00
2018-08-13T15:30:20.838Z,27.00
2018-08-13T15:32:50.261Z,26.80
2018-08-13T15:35:18.826Z,26.70
2018-08-13T15:37:47.915Z,26.60
2018-08-13T15:40:16.443Z,26.60
2018-08-13T15:42:44.971Z,26.50
2018-08-13T15:45:19.398Z,26.30
2018-08-13T15:47:48.562Z,26.20
2018-08-13T15:50:18.336Z,26.00
2018-08-13T15:52:47.316Z,25.90
2018-08-13T15:55:15.849Z,25.80
2018-08-13T15:57:44.886Z,25.60
2018-08-13T16:00:16.156Z,25.30
2018-08-13T16:02:44.639Z,24.80
2018-08-13T16:05:13.171Z,24.40
2018-08-13T16:07:41.602Z,24.10
2018-08-13T16:10:12.516Z,23.50
2018-08-13T16:12:41.445Z,22.90
2018-08-13T16:15:10.080Z,22.30
2018-08-13T16:17:39.198Z,21.90
2018-08-13T16:20:14.731Z,21.60
2018-08-13T16:22:50.208Z,21.20
2018-08-13T16:25:18.882Z,20.90
2018-08-13T16:27:47.960Z,20.60
2018-08-13T16:30:20.091Z,20.40
2018-08-13T16:32:49.252Z,20.20
2018-08-13T16:35:18.726Z,20.00
2018-08-13T16:37:47.527Z,19.70
2018-08-13T16:40:17.013Z,19.60
2018-08-13T16:42:45.739Z,19.50
2018-08-13T16:45:15.477Z,19.50
2018-08-13T16:47:43.955Z,19.40
2018-08-13T16:50:29.817Z,19.40
2018-08-13T16:52:59.133Z,19.30
2018-08-13T16:55:28.964Z,19.30
2018-08-13T16:57:57.895Z,19.30
2018-08-13T17:00:29.035Z,19.20
2018-08-13T17:02:57.965Z,19.30
2018-08-13T17:05:27.327Z,19.30
2018-08-13T17:07:55.804Z,19.20
2018-08-13T17:10:25.810Z,19.20
2018-08-13T17:12:55.071Z,19.20
2018-08-13T17:15:24.213Z,19.10
2018-08-13T17:17:54.162Z,19.20
2018-08-13T17:20:26.821Z,19.20
2018-08-13T17:22:55.366Z,19.10
2018-08-13T17:25:24.268Z,19.20
2018-08-13T17:27:52.837Z,19.20
2018-08-13T17:30:23.306Z,19.00
2018-08-13T17:32:53.025Z,19.00
2018-08-13T17:35:23.827Z,18.90
2018-08-13T17:37:52.549Z,18.80
2018-08-13T17:40:22.665Z,18.80
2018-08-13T17:42:51.859Z,18.70
2018-08-13T17:45:20.381Z,18.60
2018-08-13T17:47:48.972Z,18.60
2018-08-13T17:50:19.795Z,18.60
2018-08-13T17:52:48.618Z,18.70
2018-08-13T17:55:17.754Z,18.70
2018-08-13T17:57:46.446Z,18.70
2018-08-13T18:00:19.427Z,18.80
2018-08-13T18:02:48.020Z,18.90
2018-08-13T18:05:19.428Z,18.90
2018-08-13T18:07:48.606Z,19.00
2018-08-13T18:10:23.026Z,19.10
2018-08-13T18:12:51.655Z,19.10
2018-08-13T18:15:26.945Z,19.20
2018-08-13T18:17:55.430Z,19.10
2018-08-13T18:20:23.967Z,19.10
2018-08-13T18:22:52.718Z,19.10
2018-08-13T18:25:21.313Z,19.10
2018-08-13T18:27:50.822Z,19.10
2018-08-13T18:30:21.672Z,19.20
2018-08-13T18:32:50.569Z,19.10
2018-08-13T18:35:19.208Z,19.00
2018-08-13T18:37:48.151Z,18.90
2018-08-13T18:40:19.215Z,18.90
2018-08-13T18:42:48.074Z,19.00
2018-08-13T18:45:16.779Z,19.00
2018-08-13T18:47:45.312Z,19.10
2018-08-13T18:50:16.102Z,19.10
2018-08-13T18:52:45.301Z,19.00
2018-08-13T18:55:17.304Z,19.00
2018-08-13T18:57:46.134Z,18.90
2018-08-13T19:00:20.123Z,19.00
2018-08-13T19:02:48.901Z,18.90
2018-08-13T19:05:18.429Z,19.00
2018-08-13T19:07:47.869Z,19.10
2018-08-13T19:10:17.359Z,19.10
2018-08-13T19:12:46.380Z,19.00
2018-08-13T19:15:16.875Z,19.10
2018-08-13T19:17:45.505Z,19.10
2018-08-13T19:20:14.789Z,19.10
2018-08-13T19:22:43.991Z,19.10
2018-08-13T19:25:16.133Z,19.00
2018-08-13T19:27:44.991Z,19.10
2018-08-13T19:30:15.421Z,19.00
2018-08-13T19:32:44.798Z,19.10
2018-08-13T19:35:13.291Z,19.00
2018-08-13T19:37:42.150Z,18.80
2018-08-13T19:40:13.129Z,18.60
2018-08-13T19:42:41.832Z,18.60
2018-08-13T19:45:11.841Z,18.60
2018-08-13T19:47:40.522Z,18.70
2018-08-13T19:50:10.551Z,18.70
2018-08-13T19:52:40.056Z,18.60
2018-08-13T19:55:09.261Z,18.70
2018-08-13T19:57:37.836Z,18.70
2018-08-13T20:00:15.252Z,18.60
2018-08-13T20:02:43.992Z,18.60
2018-08-13T20:05:12.543Z,18.50
2018-08-13T20:07:41.089Z,18.60
2018-08-13T20:10:11.684Z,18.60
2018-08-13T20:12:40.566Z,18.70
2018-08-13T20:15:09.631Z,18.60
2018-08-13T20:17:38.285Z,18.70
2018-08-13T20:20:09.516Z,18.80
2018-08-13T20:22:38.087Z,18.80
2018-08-13T20:25:07.481Z,18.80
2018-08-13T20:27:36.247Z,18.70
2018-08-13T20:30:06.130Z,18.80
2018-08-13T20:32:34.714Z,18.70
2018-08-13T20:35:03.327Z,18.70
2018-08-13T20:37:31.912Z,18.80
2018-08-13T20:40:00.446Z,18.80
2018-08-13T20:42:29.028Z,18.90
2018-08-13T20:44:57.548Z,18.90
2018-08-13T20:47:26.279Z,18.90
2018-08-13T20:49:54.758Z,18.90
2018-08-13T20:52:23.286Z,18.90
2018-08-13T20:54:51.774Z,18.90
2018-08-13T20:57:20.458Z,18.90
2018-08-13T20:59:49.003Z,18.90
2018-08-13T21:02:17.570Z,18.90
2018-08-13T21:04:46.165Z,18.90
2018-08-13T21:07:14.706Z,18.90
2018-08-13T21:09:43.217Z,18.90
2018-08-13T21:12:11.689Z,18.90
2018-08-13T21:14:40.209Z,18.90
2018-08-13T21:17:08.697Z,18.90
2018-08-13T21:19:37.355Z,18.80
2018-08-13T21:22:05.880Z,18.80
2018-08-13T21:24:37.338Z,18.80
2018-08-13T21:27:06.140Z,18.70
2018-08-13T21:29:34.756Z,18.70
2018-08-13T21:32:03.303Z,18.50
2018-08-13T21:34:31.859Z,18.40
2018-08-13T21:37:00.782Z,18.50
2018-08-13T21:39:29.318Z,18.60
2018-08-13T21:41:57.847Z,18.60
2018-08-13T21:44:26.352Z,18.60
2018-08-13T21:46:54.880Z,18.60
2018-08-13T21:49:23.520Z,18.60
2018-08-13T21:51:52.000Z,18.70
2018-08-13T21:54:20.422Z,18.70
2018-08-13T21:56:48.942Z,18.70
2018-08-13T21:59:17.576Z,18.60
2018-08-13T22:01:47.017Z,18.60
2018-08-13T22:04:17.026Z,18.50
2018-08-13T22:06:45.909Z,18.50
2018-08-13T22:09:14.400Z,18.50
2018-08-13T22:11:43.366Z,18.60
2018-08-13T22:14:11.858Z,18.50
2018-08-13T22:16:40.341Z,18.50
2018-08-13T22:19:09.668Z,18.60
2018-08-13T22:21:38.180Z,18.60
2018-08-13T22:24:17.972Z,18.60
2018-08-13T22:26:46.438Z,18.60
2018-08-13T22:29:14.874Z,18.50
2018-08-13T22:31:43.413Z,18.50
2018-08-13T22:34:11.891Z,18.40
2018-08-13T22:36:40.413Z,18.40
2018-08-13T22:39:09.511Z,18.30
2018-08-13T22:41:38.160Z,18.40
2018-08-13T22:44:06.729Z,18.30
2018-08-13T22:46:35.559Z,18.30
2018-08-13T22:49:04.057Z,18.40
2018-08-13T22:51:32.512Z,18.40
2018-08-13T22:54:01.129Z,18.40
2018-08-13T22:56:29.584Z,18.40
2018-08-13T22:58:58.050Z,18.30
2018-08-13T23:01:26.534Z,18.30
2018-08-13T23:03:55.063Z,18.20
2018-08-13T23:06:23.550Z,18.20
2018-08-13T23:08:52.096Z,18.30
2018-08-13T23:11:20.616Z,18.30
2018-08-13T23:13:49.166Z,18.30
2018-08-13T23:16:17.636Z,18.30
2018-08-13T23:18:46.199Z,18.30
2018-08-13T23:21:14.665Z,18.20
2018-08-13T23:23:43.148Z,18.20
2018-08-13T23:26:11.606Z,18.20
2018-08-13T23:28:40.047Z,18.20
2018-08-13T23:31:08.553Z,18.20
2018-08-13T23:33:37.017Z,18.20
2018-08-13T23:36:05.860Z,18.20
2018-08-13T23:38:34.314Z,18.20
2018-08-13T23:41:02.760Z,18.20
2018-08-13T23:43:31.240Z,18.20
2018-08-13T23:45:59.782Z,18.10
2018-08-13T23:48:28.249Z,18.10
2018-08-13T23:50:56.756Z,18.10
2018-08-13T23:53:25.190Z,18.10
2018-08-13T23:55:53.628Z,18.10
2018-08-13T23:58:22.108Z,18.10
